sensor_id;sensor_type;location;lat;lon;timestamp;temperature;humidity
68485;DHT22;55472;50.060;21.960;2023-04-03T00:01:03;3.00;91.20
68485;DHT22;55472;50.060;21.960;2023-04-03T00:03:30;2.90;91.30
68485;DHT22;55472;50.060;21.960;2023-04-03T00:05:56;3.00;91.20
68485;DHT22;55472;50.060;21.960;2023-04-03T00:08:22;3.00;91.30
68485;DHT22;55472;50.060;21.960;2023-04-03T00:10:50;3.00;91.40
68485;DHT22;55472;50.060;21.960;2023-04-03T00:13:16;3.00;91.60
68485;DHT22;55472;50.060;21.960;2023-04-03T00:15:43;3.00;91.40
68485;DHT22;55472;50.060;21.960;2023-04-03T00:18:09;3.00;91.00
68485;DHT22;55472;50.060;21.960;2023-04-03T00:20:35;3.00;91.10
68485;DHT22;55472;50.060;21.960;2023-04-03T00:23:02;3.00;90.80
68485;DHT22;55472;50.060;21.960;2023-04-03T00:25:29;2.90;90.50
68485;DHT22;55472;50.060;21.960;2023-04-03T00:27:55;2.90;90.20
68485;DHT22;55472;50.060;21.960;2023-04-03T00:30:22;2.90;90.60
68485;DHT22;55472;50.060;21.960;2023-04-03T00:32:49;2.80;91.00
68485;DHT22;55472;50.060;21.960;2023-04-03T00:35:16;2.80;91.20
68485;DHT22;55472;50.060;21.960;2023-04-03T00:37:43;2.80;91.00
68485;DHT22;55472;50.060;21.960;2023-04-03T00:40:11;2.70;90.80
68485;DHT22;55472;50.060;21.960;2023-04-03T00:42:41;3.30;89.90
68485;DHT22;55472;50.060;21.960;2023-04-03T00:47:38;2.70;91.00
68485;DHT22;55472;50.060;21.960;2023-04-03T00:50:06;2.70;91.30
68485;DHT22;55472;50.060;21.960;2023-04-03T00:52:33;2.70;91.00
68485;DHT22;55472;50.060;21.960;2023-04-03T00:55:04;2.70;91.00
68485;DHT22;55472;50.060;21.960;2023-04-03T00:57:32;2.70;91.10
68485;DHT22;55472;50.060;21.960;2023-04-03T01:00:03;2.70;91.10
68485;DHT22;55472;50.060;21.960;2023-04-03T01:02:31;2.70;91.30
68485;DHT22;55472;50.060;21.960;2023-04-03T01:04:58;2.70;91.60
68485;DHT22;55472;50.060;21.960;2023-04-03T01:07:29;2.70;91.80
68485;DHT22;55472;50.060;21.960;2023-04-03T01:09:58;2.70;91.40
68485;DHT22;55472;50.060;21.960;2023-04-03T01:12:30;2.70;91.60
68485;DHT22;55472;50.060;21.960;2023-04-03T01:15:10;2.70;91.60
68485;DHT22;55472;50.060;21.960;2023-04-03T01:17:53;2.70;91.40
68485;DHT22;55472;50.060;21.960;2023-04-03T01:25:53;2.60;91.20
68485;DHT22;55472;50.060;21.960;2023-04-03T01:28:24;2.60;91.30
68485;DHT22;55472;50.060;21.960;2023-04-03T01:33:41;2.60;90.90
68485;DHT22;55472;50.060;21.960;2023-04-03T01:36:10;2.60;91.00
68485;DHT22;55472;50.060;21.960;2023-04-03T01:38:41;2.60;91.40
68485;DHT22;55472;50.060;21.960;2023-04-03T01:41:07;2.60;90.90
68485;DHT22;55472;50.060;21.960;2023-04-03T01:43:33;2.50;90.80
68485;DHT22;55472;50.060;21.960;2023-04-03T01:45:59;2.50;90.70
68485;DHT22;55472;50.060;21.960;2023-04-03T01:48:25;2.40;90.90
68485;DHT22;55472;50.060;21.960;2023-04-03T01:50:52;2.50;91.00
68485;DHT22;55472;50.060;21.960;2023-04-03T01:53:18;2.40;90.70
68485;DHT22;55472;50.060;21.960;2023-04-03T01:55:44;2.40;90.80
68485;DHT22;55472;50.060;21.960;2023-04-03T01:58:10;2.50;90.60
68485;DHT22;55472;50.060;21.960;2023-04-03T02:00:37;2.40;90.50
68485;DHT22;55472;50.060;21.960;2023-04-03T02:03:03;2.40;90.60
68485;DHT22;55472;50.060;21.960;2023-04-03T02:05:29;2.40;90.80
68485;DHT22;55472;50.060;21.960;2023-04-03T02:07:55;2.40;91.10
68485;DHT22;55472;50.060;21.960;2023-04-03T02:10:22;2.40;91.10
68485;DHT22;55472;50.060;21.960;2023-04-03T02:12:48;2.30;90.80
68485;DHT22;55472;50.060;21.960;2023-04-03T02:15:14;2.30;91.00
68485;DHT22;55472;50.060;21.960;2023-04-03T02:17:40;2.30;90.90
68485;DHT22;55472;50.060;21.960;2023-04-03T02:20:07;2.30;90.80
68485;DHT22;55472;50.060;21.960;2023-04-03T02:22:34;2.20;91.00
68485;DHT22;55472;50.060;21.960;2023-04-03T02:25:01;2.20;90.90
68485;DHT22;55472;50.060;21.960;2023-04-03T02:27:27;2.20;91.00
68485;DHT22;55472;50.060;21.960;2023-04-03T02:29:54;2.20;91.40
68485;DHT22;55472;50.060;21.960;2023-04-03T02:32:20;2.20;91.00
68485;DHT22;55472;50.060;21.960;2023-04-03T02:34:46;2.10;90.60
68485;DHT22;55472;50.060;21.960;2023-04-03T02:37:12;2.20;90.70
68485;DHT22;55472;50.060;21.960;2023-04-03T02:39:38;2.10;90.90
68485;DHT22;55472;50.060;21.960;2023-04-03T02:42:04;2.10;91.00
68485;DHT22;55472;50.060;21.960;2023-04-03T02:44:31;2.10;90.50
68485;DHT22;55472;50.060;21.960;2023-04-03T02:46:57;2.10;91.20
68485;DHT22;55472;50.060;21.960;2023-04-03T02:49:23;2.10;90.80
68485;DHT22;55472;50.060;21.960;2023-04-03T02:51:50;2.10;91.10
68485;DHT22;55472;50.060;21.960;2023-04-03T02:54:17;2.10;91.30
68485;DHT22;55472;50.060;21.960;2023-04-03T02:56:43;2.10;91.20
68485;DHT22;55472;50.060;21.960;2023-04-03T03:01:35;2.70;89.60
68485;DHT22;55472;50.060;21.960;2023-04-03T03:04:02;2.10;90.90
68485;DHT22;55472;50.060;21.960;2023-04-03T03:06:28;2.00;90.30
68485;DHT22;55472;50.060;21.960;2023-04-03T03:08:54;2.00;90.60
68485;DHT22;55472;50.060;21.960;2023-04-03T03:11:21;2.00;90.50
68485;DHT22;55472;50.060;21.960;2023-04-03T03:13:48;1.90;90.90
68485;DHT22;55472;50.060;21.960;2023-04-03T03:16:14;1.90;91.10
68485;DHT22;55472;50.060;21.960;2023-04-03T03:18:40;1.80;91.20
68485;DHT22;55472;50.060;21.960;2023-04-03T03:21:06;1.90;91.70
68485;DHT22;55472;50.060;21.960;2023-04-03T03:23:33;1.80;92.00
68485;DHT22;55472;50.060;21.960;2023-04-03T03:26:02;1.80;91.50
68485;DHT22;55472;50.060;21.960;2023-04-03T03:28:34;1.70;91.20
68485;DHT22;55472;50.060;21.960;2023-04-03T03:31:02;1.80;91.40
68485;DHT22;55472;50.060;21.960;2023-04-03T03:33:29;1.80;91.40
68485;DHT22;55472;50.060;21.960;2023-04-03T03:35:55;1.80;91.20
68485;DHT22;55472;50.060;21.960;2023-04-03T03:38:22;1.80;91.30
68485;DHT22;55472;50.060;21.960;2023-04-03T03:40:50;1.80;91.60
68485;DHT22;55472;50.060;21.960;2023-04-03T03:43:17;1.80;91.80
68485;DHT22;55472;50.060;21.960;2023-04-03T03:45:44;1.80;91.80
68485;DHT22;55472;50.060;21.960;2023-04-03T03:48:12;1.80;91.70
68485;DHT22;55472;50.060;21.960;2023-04-03T03:50:38;1.80;91.80
68485;DHT22;55472;50.060;21.960;2023-04-03T03:53:04;1.80;91.40
68485;DHT22;55472;50.060;21.960;2023-04-03T03:55:30;1.80;91.20
68485;DHT22;55472;50.060;21.960;2023-04-03T03:57:57;1.80;90.90
68485;DHT22;55472;50.060;21.960;2023-04-03T04:00:23;1.80;90.40
68485;DHT22;55472;50.060;21.960;2023-04-03T04:02:49;1.70;90.70
68485;DHT22;55472;50.060;21.960;2023-04-03T04:05:15;1.70;91.10
68485;DHT22;55472;50.060;21.960;2023-04-03T04:07:42;1.60;91.60
68485;DHT22;55472;50.060;21.960;2023-04-03T04:12:35;2.30;90.20
68485;DHT22;55472;50.060;21.960;2023-04-03T04:15:03;1.60;91.40
68485;DHT22;55472;50.060;21.960;2023-04-03T04:17:29;1.60;92.20
68485;DHT22;55472;50.060;21.960;2023-04-03T04:19:55;1.60;91.80
68485;DHT22;55472;50.060;21.960;2023-04-03T04:22:22;1.50;92.60
68485;DHT22;55472;50.060;21.960;2023-04-03T04:24:48;1.60;92.90
68485;DHT22;55472;50.060;21.960;2023-04-03T04:27:14;1.60;92.70
68485;DHT22;55472;50.060;21.960;2023-04-03T04:29:41;1.60;92.60
68485;DHT22;55472;50.060;21.960;2023-04-03T04:32:07;1.60;92.60
68485;DHT22;55472;50.060;21.960;2023-04-03T04:34:34;1.60;92.40
68485;DHT22;55472;50.060;21.960;2023-04-03T04:37:00;1.60;92.30
68485;DHT22;55472;50.060;21.960;2023-04-03T04:39:27;1.60;92.40
68485;DHT22;55472;50.060;21.960;2023-04-03T04:41:53;1.60;92.30
68485;DHT22;55472;50.060;21.960;2023-04-03T04:44:19;1.60;92.30
68485;DHT22;55472;50.060;21.960;2023-04-03T04:46:46;1.60;92.70
68485;DHT22;55472;50.060;21.960;2023-04-03T04:49:12;1.60;92.30
68485;DHT22;55472;50.060;21.960;2023-04-03T04:51:38;1.60;92.50
68485;DHT22;55472;50.060;21.960;2023-04-03T04:54:04;1.60;92.50
68485;DHT22;55472;50.060;21.960;2023-04-03T04:56:31;1.60;91.90
68485;DHT22;55472;50.060;21.960;2023-04-03T04:58:57;1.50;91.50
68485;DHT22;55472;50.060;21.960;2023-04-03T05:01:23;1.50;91.00
68485;DHT22;55472;50.060;21.960;2023-04-03T05:03:50;1.50;91.20
68485;DHT22;55472;50.060;21.960;2023-04-03T05:06:16;1.50;91.00
68485;DHT22;55472;50.060;21.960;2023-04-03T05:08:42;1.40;90.90
68485;DHT22;55472;50.060;21.960;2023-04-03T05:11:09;1.40;90.20
68485;DHT22;55472;50.060;21.960;2023-04-03T05:13:35;1.30;90.70
68485;DHT22;55472;50.060;21.960;2023-04-03T05:16:01;1.20;90.70
68485;DHT22;55472;50.060;21.960;2023-04-03T05:18:27;1.20;91.00
68485;DHT22;55472;50.060;21.960;2023-04-03T05:20:54;1.10;91.20
68485;DHT22;55472;50.060;21.960;2023-04-03T05:23:20;1.10;91.40
68485;DHT22;55472;50.060;21.960;2023-04-03T05:25:46;1.10;91.80
68485;DHT22;55472;50.060;21.960;2023-04-03T05:28:14;1.10;91.80
68485;DHT22;55472;50.060;21.960;2023-04-03T05:30:40;1.10;91.70
68485;DHT22;55472;50.060;21.960;2023-04-03T05:33:07;1.10;91.50
68485;DHT22;55472;50.060;21.960;2023-04-03T05:35:36;1.10;91.10
68485;DHT22;55472;50.060;21.960;2023-04-03T05:38:06;1.10;91.20
68485;DHT22;55472;50.060;21.960;2023-04-03T05:40:32;1.10;90.80
68485;DHT22;55472;50.060;21.960;2023-04-03T05:43:00;1.10;90.50
68485;DHT22;55472;50.060;21.960;2023-04-03T05:45:26;1.10;90.30
68485;DHT22;55472;50.060;21.960;2023-04-03T05:47:52;1.10;89.90
68485;DHT22;55472;50.060;21.960;2023-04-03T05:50:21;1.10;89.60
68485;DHT22;55472;50.060;21.960;2023-04-03T05:52:49;1.00;89.90
68485;DHT22;55472;50.060;21.960;2023-04-03T05:55:16;1.00;90.00
68485;DHT22;55472;50.060;21.960;2023-04-03T05:57:42;1.00;89.50
68485;DHT22;55472;50.060;21.960;2023-04-03T06:00:12;1.00;89.30
68485;DHT22;55472;50.060;21.960;2023-04-03T06:02:41;0.90;89.60
68485;DHT22;55472;50.060;21.960;2023-04-03T06:05:08;0.90;89.50
68485;DHT22;55472;50.060;21.960;2023-04-03T06:07:37;0.90;89.30
68485;DHT22;55472;50.060;21.960;2023-04-03T06:10:04;0.90;89.90
68485;DHT22;55472;50.060;21.960;2023-04-03T06:12:31;0.90;89.90
68485;DHT22;55472;50.060;21.960;2023-04-03T06:14:57;0.90;90.20
68485;DHT22;55472;50.060;21.960;2023-04-03T06:17:23;0.90;90.50
68485;DHT22;55472;50.060;21.960;2023-04-03T06:19:50;0.90;89.90
68485;DHT22;55472;50.060;21.960;2023-04-03T06:22:16;0.90;89.90
68485;DHT22;55472;50.060;21.960;2023-04-03T06:24:42;0.90;89.60
68485;DHT22;55472;50.060;21.960;2023-04-03T06:27:10;0.90;90.10
68485;DHT22;55472;50.060;21.960;2023-04-03T06:29:37;0.90;90.50
68485;DHT22;55472;50.060;21.960;2023-04-03T06:32:03;0.80;90.30
68485;DHT22;55472;50.060;21.960;2023-04-03T06:34:29;0.80;90.60
68485;DHT22;55472;50.060;21.960;2023-04-03T06:36:57;0.80;91.00
68485;DHT22;55472;50.060;21.960;2023-04-03T06:39:23;0.90;91.30
68485;DHT22;55472;50.060;21.960;2023-04-03T06:41:50;0.90;91.00
68485;DHT22;55472;50.060;21.960;2023-04-03T06:44:17;0.90;90.80
68485;DHT22;55472;50.060;21.960;2023-04-03T06:46:44;0.90;90.40
68485;DHT22;55472;50.060;21.960;2023-04-03T06:49:12;0.90;90.90
68485;DHT22;55472;50.060;21.960;2023-04-03T06:51:38;0.90;90.70
68485;DHT22;55472;50.060;21.960;2023-04-03T06:54:06;0.90;90.60
68485;DHT22;55472;50.060;21.960;2023-04-03T06:56:33;0.90;90.70
68485;DHT22;55472;50.060;21.960;2023-04-03T06:59:00;0.90;91.10
68485;DHT22;55472;50.060;21.960;2023-04-03T07:01:29;0.90;91.00
68485;DHT22;55472;50.060;21.960;2023-04-03T07:03:56;0.90;90.60
68485;DHT22;55472;50.060;21.960;2023-04-03T07:06:23;0.90;90.30
68485;DHT22;55472;50.060;21.960;2023-04-03T07:08:49;0.80;90.60
68485;DHT22;55472;50.060;21.960;2023-04-03T07:11:16;0.80;90.80
68485;DHT22;55472;50.060;21.960;2023-04-03T07:13:43;0.80;90.40
68485;DHT22;55472;50.060;21.960;2023-04-03T07:16:09;0.70;90.50
68485;DHT22;55472;50.060;21.960;2023-04-03T07:18:36;0.70;90.90
68485;DHT22;55472;50.060;21.960;2023-04-03T07:21:03;0.70;91.50
68485;DHT22;55472;50.060;21.960;2023-04-03T07:23:30;0.70;91.70
68485;DHT22;55472;50.060;21.960;2023-04-03T07:25:56;0.70;91.70
68485;DHT22;55472;50.060;21.960;2023-04-03T07:28:23;0.70;91.90
68485;DHT22;55472;50.060;21.960;2023-04-03T07:30:51;0.80;92.10
68485;DHT22;55472;50.060;21.960;2023-04-03T07:33:21;0.80;90.90
68485;DHT22;55472;50.060;21.960;2023-04-03T07:35:48;0.70;90.70
68485;DHT22;55472;50.060;21.960;2023-04-03T07:38:15;0.70;91.50
68485;DHT22;55472;50.060;21.960;2023-04-03T07:40:46;0.80;91.50
68485;DHT22;55472;50.060;21.960;2023-04-03T07:43:17;0.80;91.60
68485;DHT22;55472;50.060;21.960;2023-04-03T07:45:45;0.70;91.00
68485;DHT22;55472;50.060;21.960;2023-04-03T07:48:21;0.60;89.90
68485;DHT22;55472;50.060;21.960;2023-04-03T07:50:48;0.60;90.50
68485;DHT22;55472;50.060;21.960;2023-04-03T07:53:15;0.60;91.10
68485;DHT22;55472;50.060;21.960;2023-04-03T07:55:42;0.60;91.00
68485;DHT22;55472;50.060;21.960;2023-04-03T07:58:10;0.60;90.60
68485;DHT22;55472;50.060;21.960;2023-04-03T08:00:37;0.60;90.50
68485;DHT22;55472;50.060;21.960;2023-04-03T08:03:16;0.60;89.70
68485;DHT22;55472;50.060;21.960;2023-04-03T08:05:47;0.60;89.90
68485;DHT22;55472;50.060;21.960;2023-04-03T08:08:22;0.60;90.00
68485;DHT22;55472;50.060;21.960;2023-04-03T08:10:50;0.60;89.10
68485;DHT22;55472;50.060;21.960;2023-04-03T08:13:28;0.50;88.90
68485;DHT22;55472;50.060;21.960;2023-04-03T08:16:21;0.50;90.00
68485;DHT22;55472;50.060;21.960;2023-04-03T08:18:56;0.50;90.50
68485;DHT22;55472;50.060;21.960;2023-04-03T08:21:22;0.50;90.80
68485;DHT22;55472;50.060;21.960;2023-04-03T08:23:50;0.50;90.40
68485;DHT22;55472;50.060;21.960;2023-04-03T08:26:19;0.50;90.50
68485;DHT22;55472;50.060;21.960;2023-04-03T08:28:48;0.50;90.30
68485;DHT22;55472;50.060;21.960;2023-04-03T08:31:29;0.60;89.00
68485;DHT22;55472;50.060;21.960;2023-04-03T08:33:58;0.50;89.60
68485;DHT22;55472;50.060;21.960;2023-04-03T08:40:16;0.50;89.40
68485;DHT22;55472;50.060;21.960;2023-04-03T08:55:00;0.30;87.90
68485;DHT22;55472;50.060;21.960;2023-04-03T09:01:23;0.30;88.70
68485;DHT22;55472;50.060;21.960;2023-04-03T09:04:02;0.30;88.10
68485;DHT22;55472;50.060;21.960;2023-04-03T09:06:55;0.30;88.10
68485;DHT22;55472;50.060;21.960;2023-04-03T09:09:42;0.20;88.40
68485;DHT22;55472;50.060;21.960;2023-04-03T09:18:53;0.30;87.70
68485;DHT22;55472;50.060;21.960;2023-04-03T09:21:49;0.40;87.40
68485;DHT22;55472;50.060;21.960;2023-04-03T09:24:16;0.40;87.40
68485;DHT22;55472;50.060;21.960;2023-04-03T09:29:22;0.40;86.20
68485;DHT22;55472;50.060;21.960;2023-04-03T09:31:55;0.50;85.90
68485;DHT22;55472;50.060;21.960;2023-04-03T09:37:51;0.50;85.50
68485;DHT22;55472;50.060;21.960;2023-04-03T09:42:53;0.50;85.10
68485;DHT22;55472;50.060;21.960;2023-04-03T09:45:34;0.40;86.20
68485;DHT22;55472;50.060;21.960;2023-04-03T09:53:41;0.40;84.40
68485;DHT22;55472;50.060;21.960;2023-04-03T09:56:29;0.20;84.50
68485;DHT22;55472;50.060;21.960;2023-04-03T10:04:18;0.20;85.90
68485;DHT22;55472;50.060;21.960;2023-04-03T10:06:53;0.20;85.60
68485;DHT22;55472;50.060;21.960;2023-04-03T10:14:32;0.30;85.20
68485;DHT22;55472;50.060;21.960;2023-04-03T10:20:27;0.10;85.40
68485;DHT22;55472;50.060;21.960;2023-04-03T10:23:26;0.10;86.20
68485;DHT22;55472;50.060;21.960;2023-04-03T10:34:30;0.30;85.50
68485;DHT22;55472;50.060;21.960;2023-04-03T10:37:24;0.30;85.40
68485;DHT22;55472;50.060;21.960;2023-04-03T10:40:20;0.40;85.40
68485;DHT22;55472;50.060;21.960;2023-04-03T10:46:00;0.50;86.20
68485;DHT22;55472;50.060;21.960;2023-04-03T10:54:12;0.60;85.60
68485;DHT22;55472;50.060;21.960;2023-04-03T10:56:47;0.70;85.40
68485;DHT22;55472;50.060;21.960;2023-04-03T11:02:23;0.80;85.60
68485;DHT22;55472;50.060;21.960;2023-04-03T11:05:01;0.90;84.70
68485;DHT22;55472;50.060;21.960;2023-04-03T11:07:33;0.90;84.80
68485;DHT22;55472;50.060;21.960;2023-04-03T11:10:12;0.90;84.50
68485;DHT22;55472;50.060;21.960;2023-04-03T11:12:53;1.00;85.00
68485;DHT22;55472;50.060;21.960;2023-04-03T11:15:24;1.10;85.00
68485;DHT22;55472;50.060;21.960;2023-04-03T11:18:08;1.10;84.30
68485;DHT22;55472;50.060;21.960;2023-04-03T11:20:37;1.20;83.30
68485;DHT22;55472;50.060;21.960;2023-04-03T11:23:28;1.10;82.50
68485;DHT22;55472;50.060;21.960;2023-04-03T11:26:12;1.10;83.80
68485;DHT22;55472;50.060;21.960;2023-04-03T11:28:41;1.20;83.70
68485;DHT22;55472;50.060;21.960;2023-04-03T11:31:29;1.20;83.30
68485;DHT22;55472;50.060;21.960;2023-04-03T11:36:39;1.20;82.40
68485;DHT22;55472;50.060;21.960;2023-04-03T11:39:30;1.20;81.90
68485;DHT22;55472;50.060;21.960;2023-04-03T11:42:14;1.20;82.10
68485;DHT22;55472;50.060;21.960;2023-04-03T11:44:41;1.20;81.70
68485;DHT22;55472;50.060;21.960;2023-04-03T11:47:11;1.20;82.80
68485;DHT22;55472;50.060;21.960;2023-04-03T11:53:10;1.20;81.60
68485;DHT22;55472;50.060;21.960;2023-04-03T11:55:52;1.20;80.50
68485;DHT22;55472;50.060;21.960;2023-04-03T12:19:29;1.10;84.50
68485;DHT22;55472;50.060;21.960;2023-04-03T12:24:27;1.00;83.90
68485;DHT22;55472;50.060;21.960;2023-04-03T12:27:04;1.00;84.00
68485;DHT22;55472;50.060;21.960;2023-04-03T12:29:51;0.90;84.60
68485;DHT22;55472;50.060;21.960;2023-04-03T12:38:25;1.00;83.10
68485;DHT22;55472;50.060;21.960;2023-04-03T12:46:47;1.20;81.30
68485;DHT22;55472;50.060;21.960;2023-04-03T12:52:00;1.30;80.40
68485;DHT22;55472;50.060;21.960;2023-04-03T12:54:39;1.50;80.60
68485;DHT22;55472;50.060;21.960;2023-04-03T12:57:16;1.60;80.60
68485;DHT22;55472;50.060;21.960;2023-04-03T12:59:43;1.80;80.60
68485;DHT22;55472;50.060;21.960;2023-04-03T13:05:03;1.90;78.00
68485;DHT22;55472;50.060;21.960;2023-04-03T13:07:37;1.90;78.00
68485;DHT22;55472;50.060;21.960;2023-04-03T13:15:44;2.00;76.60
68485;DHT22;55472;50.060;21.960;2023-04-03T13:18:23;2.00;77.10
68485;DHT22;55472;50.060;21.960;2023-04-03T13:20:52;1.90;75.40
68485;DHT22;55472;50.060;21.960;2023-04-03T13:23:20;1.90;73.90
68485;DHT22;55472;50.060;21.960;2023-04-03T13:25:47;1.90;74.20
68485;DHT22;55472;50.060;21.960;2023-04-03T13:28:19;1.90;73.10
68485;DHT22;55472;50.060;21.960;2023-04-03T13:34:11;2.00;73.20
68485;DHT22;55472;50.060;21.960;2023-04-03T13:39:20;2.10;72.90
68485;DHT22;55472;50.060;21.960;2023-04-03T13:41:51;2.10;73.30
68485;DHT22;55472;50.060;21.960;2023-04-03T13:46:56;2.20;72.70
68485;DHT22;55472;50.060;21.960;2023-04-03T13:49:35;2.30;71.40
68485;DHT22;55472;50.060;21.960;2023-04-03T13:52:27;2.30;72.30
68485;DHT22;55472;50.060;21.960;2023-04-03T13:54:58;2.40;71.40
68485;DHT22;55472;50.060;21.960;2023-04-03T13:57:26;2.30;71.90
68485;DHT22;55472;50.060;21.960;2023-04-03T13:59:53;2.30;71.80
68485;DHT22;55472;50.060;21.960;2023-04-03T14:02:22;2.30;71.10
68485;DHT22;55472;50.060;21.960;2023-04-03T14:04:59;2.20;72.40
68485;DHT22;55472;50.060;21.960;2023-04-03T14:07:30;2.20;72.60
68485;DHT22;55472;50.060;21.960;2023-04-03T14:09:59;2.10;72.20
68485;DHT22;55472;50.060;21.960;2023-04-03T14:12:36;2.00;73.90
68485;DHT22;55472;50.060;21.960;2023-04-03T14:15:15;2.00;73.90
68485;DHT22;55472;50.060;21.960;2023-04-03T14:17:44;2.00;74.30
68485;DHT22;55472;50.060;21.960;2023-04-03T14:20:18;2.10;74.80
68485;DHT22;55472;50.060;21.960;2023-04-03T14:22:47;2.10;75.80
68485;DHT22;55472;50.060;21.960;2023-04-03T14:25:15;2.20;74.80
68485;DHT22;55472;50.060;21.960;2023-04-03T14:27:45;2.20;74.60
68485;DHT22;55472;50.060;21.960;2023-04-03T14:30:33;2.20;75.10
68485;DHT22;55472;50.060;21.960;2023-04-03T14:33:01;2.30;75.50
68485;DHT22;55472;50.060;21.960;2023-04-03T14:35:28;2.40;75.50
68485;DHT22;55472;50.060;21.960;2023-04-03T14:37:55;2.40;75.70
68485;DHT22;55472;50.060;21.960;2023-04-03T14:40:26;2.50;75.50
68485;DHT22;55472;50.060;21.960;2023-04-03T14:42:53;2.50;75.50
68485;DHT22;55472;50.060;21.960;2023-04-03T14:45:22;2.50;75.80
68485;DHT22;55472;50.060;21.960;2023-04-03T14:47:52;2.60;75.50
68485;DHT22;55472;50.060;21.960;2023-04-03T14:50:25;2.60;75.40
68485;DHT22;55472;50.060;21.960;2023-04-03T14:52:55;2.70;75.50
68485;DHT22;55472;50.060;21.960;2023-04-03T14:55:25;2.70;75.20
68485;DHT22;55472;50.060;21.960;2023-04-03T14:57:53;2.80;74.30
68485;DHT22;55472;50.060;21.960;2023-04-03T15:00:21;2.80;72.60
68485;DHT22;55472;50.060;21.960;2023-04-03T15:02:48;2.80;71.90
68485;DHT22;55472;50.060;21.960;2023-04-03T15:05:15;2.80;69.50
68485;DHT22;55472;50.060;21.960;2023-04-03T15:07:47;2.70;68.40
68485;DHT22;55472;50.060;21.960;2023-04-03T15:10:28;2.60;68.20
68485;DHT22;55472;50.060;21.960;2023-04-03T15:12:56;2.60;68.50
68485;DHT22;55472;50.060;21.960;2023-04-03T15:15:23;2.60;67.80
68485;DHT22;55472;50.060;21.960;2023-04-03T15:17:55;2.60;69.10
68485;DHT22;55472;50.060;21.960;2023-04-03T15:20:25;2.60;68.80
68485;DHT22;55472;50.060;21.960;2023-04-03T15:22:53;2.50;69.50
68485;DHT22;55472;50.060;21.960;2023-04-03T15:25:22;2.50;68.90
68485;DHT22;55472;50.060;21.960;2023-04-03T15:27:48;2.50;69.10
68485;DHT22;55472;50.060;21.960;2023-04-03T15:30:17;2.50;69.70
68485;DHT22;55472;50.060;21.960;2023-04-03T15:32:44;2.40;69.40
68485;DHT22;55472;50.060;21.960;2023-04-03T15:35:11;2.40;70.20
68485;DHT22;55472;50.060;21.960;2023-04-03T15:37:38;2.30;69.00
68485;DHT22;55472;50.060;21.960;2023-04-03T15:40:05;2.30;69.40
68485;DHT22;55472;50.060;21.960;2023-04-03T15:42:32;2.30;70.00
68485;DHT22;55472;50.060;21.960;2023-04-03T15:44:59;2.30;69.40
68485;DHT22;55472;50.060;21.960;2023-04-03T15:47:26;2.20;69.20
68485;DHT22;55472;50.060;21.960;2023-04-03T15:49:54;2.20;70.10
68485;DHT22;55472;50.060;21.960;2023-04-03T15:52:20;2.20;70.30
68485;DHT22;55472;50.060;21.960;2023-04-03T15:54:47;2.20;71.70
68485;DHT22;55472;50.060;21.960;2023-04-03T15:57:13;2.20;70.70
68485;DHT22;55472;50.060;21.960;2023-04-03T15:59:39;2.20;70.80
68485;DHT22;55472;50.060;21.960;2023-04-03T16:02:08;2.20;71.00
68485;DHT22;55472;50.060;21.960;2023-04-03T16:04:36;2.20;70.50
68485;DHT22;55472;50.060;21.960;2023-04-03T16:07:03;2.10;70.90
68485;DHT22;55472;50.060;21.960;2023-04-03T16:09:31;2.10;71.10
68485;DHT22;55472;50.060;21.960;2023-04-03T16:11:58;2.10;71.80
68485;DHT22;55472;50.060;21.960;2023-04-03T16:14:24;2.10;71.40
68485;DHT22;55472;50.060;21.960;2023-04-03T16:16:51;2.10;71.80
68485;DHT22;55472;50.060;21.960;2023-04-03T16:19:17;2.10;70.40
68485;DHT22;55472;50.060;21.960;2023-04-03T16:21:43;2.10;70.90
68485;DHT22;55472;50.060;21.960;2023-04-03T16:24:09;2.00;71.10
68485;DHT22;55472;50.060;21.960;2023-04-03T16:26:35;2.00;71.90
68485;DHT22;55472;50.060;21.960;2023-04-03T16:29:02;2.00;73.00
68485;DHT22;55472;50.060;21.960;2023-04-03T16:31:28;2.00;72.90
68485;DHT22;55472;50.060;21.960;2023-04-03T16:33:55;2.00;73.30
68485;DHT22;55472;50.060;21.960;2023-04-03T16:36:22;2.00;73.80
68485;DHT22;55472;50.060;21.960;2023-04-03T16:38:50;2.00;73.60
68485;DHT22;55472;50.060;21.960;2023-04-03T16:41:16;2.00;72.80
68485;DHT22;55472;50.060;21.960;2023-04-03T16:43:43;1.90;73.30
68485;DHT22;55472;50.060;21.960;2023-04-03T16:46:09;1.90;73.30
68485;DHT22;55472;50.060;21.960;2023-04-03T16:48:35;1.90;73.60
68485;DHT22;55472;50.060;21.960;2023-04-03T16:51:02;1.80;73.40
68485;DHT22;55472;50.060;21.960;2023-04-03T16:53:29;1.80;73.20
68485;DHT22;55472;50.060;21.960;2023-04-03T16:55:57;1.80;72.90
68485;DHT22;55472;50.060;21.960;2023-04-03T16:58:24;1.70;71.80
68485;DHT22;55472;50.060;21.960;2023-04-03T17:00:50;1.70;72.20
68485;DHT22;55472;50.060;21.960;2023-04-03T17:03:17;1.70;72.50
68485;DHT22;55472;50.060;21.960;2023-04-03T17:05:47;1.70;71.60
68485;DHT22;55472;50.060;21.960;2023-04-03T17:08:15;1.60;71.40
68485;DHT22;55472;50.060;21.960;2023-04-03T17:10:42;1.60;71.30
68485;DHT22;55472;50.060;21.960;2023-04-03T17:13:08;1.60;71.00
68485;DHT22;55472;50.060;21.960;2023-04-03T17:15:34;1.50;70.80
68485;DHT22;55472;50.060;21.960;2023-04-03T17:18:01;1.50;70.20
68485;DHT22;55472;50.060;21.960;2023-04-03T17:20:27;1.50;70.10
68485;DHT22;55472;50.060;21.960;2023-04-03T17:22:55;1.40;70.70
68485;DHT22;55472;50.060;21.960;2023-04-03T17:25:21;1.40;71.30
68485;DHT22;55472;50.060;21.960;2023-04-03T17:27:48;1.40;71.40
68485;DHT22;55472;50.060;21.960;2023-04-03T17:30:14;1.40;72.10
68485;DHT22;55472;50.060;21.960;2023-04-03T17:32:42;1.40;72.00
68485;DHT22;55472;50.060;21.960;2023-04-03T17:35:08;1.40;72.30
68485;DHT22;55472;50.060;21.960;2023-04-03T17:37:38;1.40;72.50
68485;DHT22;55472;50.060;21.960;2023-04-03T17:40:25;1.40;70.90
68485;DHT22;55472;50.060;21.960;2023-04-03T17:43:25;1.40;70.10
68485;DHT22;55472;50.060;21.960;2023-04-03T17:46:09;1.40;70.50
68485;DHT22;55472;50.060;21.960;2023-04-03T17:52:08;1.40;70.90
68485;DHT22;55472;50.060;21.960;2023-04-03T17:58:27;1.40;70.40
68485;DHT22;55472;50.060;21.960;2023-04-03T18:01:06;1.40;71.70
68485;DHT22;55472;50.060;21.960;2023-04-03T18:38:09;1.30;72.80
68485;DHT22;55472;50.060;21.960;2023-04-03T18:40:36;1.20;72.70
68485;DHT22;55472;50.060;21.960;2023-04-03T18:43:09;1.20;72.00
68485;DHT22;55472;50.060;21.960;2023-04-03T18:45:39;1.10;72.10
68485;DHT22;55472;50.060;21.960;2023-04-03T18:48:10;1.10;72.40
68485;DHT22;55472;50.060;21.960;2023-04-03T18:50:38;1.10;73.00
68485;DHT22;55472;50.060;21.960;2023-04-03T18:53:05;1.10;73.50
68485;DHT22;55472;50.060;21.960;2023-04-03T18:55:32;1.00;73.00
68485;DHT22;55472;50.060;21.960;2023-04-03T18:57:58;1.00;73.00